| time (UTC) | temp F | wind direction | speed knots | gust knots | rain 1hr in | rain 24hr in | rain mn in | humidity % | barometer mb |
| 20260507111530 | 56 | 0.0 | 0.0 | 0.00 | 0.47 | 0.13 | 87 | 1023.7 | |
| 20260507110520 | 55 | 0.0 | 0.0 | 0.00 | 0.47 | 0.13 | 88 | 1023.9 | |
| 20260507105611 | 54 | 306 | 0.0 | 0.9 | 0.01 | 0.47 | 0.13 | 89 | 1023.9 |
| 20260507104601 | 54 | 301 | 0.0 | 0.9 | 0.01 | 0.47 | 0.13 | 90 | 1023.7 |
| 20260507103550 | 53 | 309 | 0.9 | 0.9 | 0.01 | 0.49 | 0.13 | 91 | 1024.0 |
| 20260507102541 | 53 | 260 | 0.0 | 0.9 | 0.01 | 0.49 | 0.13 | 89 | 1023.9 |
| 20260507101532 | 53 | 277 | 0.0 | 0.9 | 0.00 | 0.48 | 0.12 | 88 | 1023.8 |
| 20260507100541 | 53 | 303 | 0.0 | 0.9 | 0.00 | 0.48 | 0.12 | 86 | 1023.7 |
| 20260507095612 | 54 | 305 | 1.7 | 3.5 | 0.08 | 0.47 | 0.11 | 80 | 1023.7 |
| 20260507094602 | 58 | 294 | 1.7 | 6.1 | 0.05 | 0.44 | 0.08 | 73 | 1023.5 |
| 20260507093611 | 60 | 64 | 0.9 | 2.6 | 0.00 | 0.39 | 0.03 | 68 | 1023.3 |
| 20260507092542 | 61 | 189 | 0.9 | 0.9 | 0.00 | 0.40 | 0.03 | 64 | 1023.0 |
| 20260507091531 | 62 | 185 | 1.7 | 2.6 | 0.00 | 0.42 | 0.03 | 64 | 1022.9 |
| 20260507090521 | 62 | 169 | 0.9 | 2.6 | 0.00 | 0.42 | 0.03 | 64 | 1022.8 |
| 20260507084603 | 62 | 196 | 0.9 | 1.7 | 0.00 | 0.43 | 0.03 | 62 | 1022.8 |
| 20260507083554 | 62 | 194 | 0.9 | 1.7 | 0.00 | 0.44 | 0.03 | 60 | 1022.9 |
| 20260507082604 | 63 | 190 | 0.9 | 1.7 | 0.00 | 0.46 | 0.03 | 61 | 1023.0 |
| 20260507081533 | 61 | 156 | 0.0 | 0.9 | 0.00 | 0.46 | 0.03 | 66 | 1023.0 |
| 20260507080523 | 61 | 164 | 0.9 | 0.9 | 0.00 | 0.47 | 0.03 | 65 | 1023.0 |
| 20260507075616 | 64 | 63 | 0.9 | 1.7 | 0.00 | 0.47 | 0.03 | 67 | 1023.1 |
| 20260507074604 | 62 | 121 | 0.9 | 0.9 | 0.00 | 0.47 | 0.03 | 68 | 1023.1 |
| 20260507073553 | 59 | 121 | 0.0 | 0.9 | 0.00 | 0.48 | 0.03 | 76 | 1023.3 |
| 20260507072543 | 60 | 122 | 0.0 | 0.0 | 0.00 | 0.50 | 0.03 | 75 | 1023.2 |
| 20260507071533 | 58 | 145 | 0.0 | 0.9 | 0.00 | 0.51 | 0.03 | 78 | 1023.2 |
| 20260507070545 | 53 | 147 | 0.0 | 0.9 | 0.00 | 0.54 | 0.03 | 86 | 1023.0 |
| 20260507065614 | 52 | 0.0 | 0.0 | 0.00 | 0.55 | 0.03 | 90 | 1023.1 | |
| 20260507064644 | 51 | 0.0 | 0.0 | 0.00 | 0.57 | 0.03 | 93 | 1023.0 | |
| 20260507063553 | 50 | 0.0 | 0.0 | 0.00 | 0.59 | 0.03 | 93 | 1023.1 | |
| 20260507062544 | 50 | 0.0 | 0.0 | 0.00 | 0.60 | 0.03 | 93 | 1023.0 | |
| 20260507061554 | 49 | 310 | 0.0 | 0.9 | 0.00 | 0.61 | 0.03 | 94 | 1023.0 |
| 20260507060525 | 49 | 312 | 0.0 | 0.9 | 0.00 | 0.63 | 0.03 | 94 | 1022.8 |
| 20260507055614 | 49 | 315 | 0.0 | 0.9 | 0.00 | 0.63 | 0.03 | 95 | 1022.7 |
| 20260507054604 | 49 | 289 | 0.0 | 0.9 | 0.00 | 0.64 | 0.03 | 95 | 1022.7 |
| 20260507053554 | 49 | 285 | 0.0 | 0.9 | 0.00 | 0.64 | 0.03 | 95 | 1022.7 |
| 20260507052545 | 48 | 0.0 | 0.0 | 0.00 | 0.65 | 0.03 | 95 | 1022.7 | |
| 20260507051535 | 49 | 285 | 0.0 | 0.9 | 0.00 | 0.65 | 0.03 | 95 | 1022.6 |
| 20260507050546 | 49 | 285 | 0.0 | 0.9 | 0.00 | 0.66 | 0.03 | 95 | 1022.4 |
| 20260507045616 | 49 | 0.0 | 0.0 | 0.00 | 0.66 | 0.03 | 96 | 1022.4 | |
| 20260507044606 | 49 | 345 | 0.9 | 0.9 | 0.00 | 0.66 | 0.03 | 96 | 1022.3 |
| 20260507043617 | 48 | 301 | 0.0 | 0.9 | 0.00 | 0.66 | 0.03 | 96 | 1022.4 |
| 20260507042546 | 48 | 0.0 | 0.0 | 0.00 | 0.66 | 0.03 | 96 | 1022.5 | |
| 20260507041557 | 48 | 0.0 | 0.0 | 0.00 | 0.66 | 0.03 | 96 | 1022.4 | |
| 20260507040525 | 48 | 0.0 | 0.0 | 0.00 | 0.66 | 0.03 | 96 | 1022.3 | |
| 20260507035616 | 48 | 0.0 | 0.0 | 0.00 | 0.66 | 0.03 | 95 | 1022.2 | |
| 20260507034627 | 48 | 0.0 | 0.0 | 0.00 | 0.66 | 0.03 | 95 | 1022.1 | |
| 20260507033617 | 48 | 0.0 | 0.0 | 0.00 | 0.66 | 0.03 | 95 | 1022.0 | |
| 20260507032607 | 49 | 298 | 0.0 | 0.9 | 0.00 | 0.66 | 0.03 | 95 | 1022.0 |
| 20260507031537 | 49 | 298 | 0.0 | 0.9 | 0.00 | 0.66 | 0.03 | 95 | 1022.0 |
| 20260507030529 | 49 | 306 | 0.0 | 0.9 | 0.00 | 0.66 | 0.03 | 95 | 1022.0 |
| 20260507025517 | 49 | 315 | 0.0 | 1.7 | 0.00 | 0.66 | 0.03 | 95 | 1022.0 |
| 20260507024608 | 49 | 359 | 0.0 | 0.0 | 0.00 | 0.66 | 0.03 | 95 | 1022.0 |
| 20260507023558 | 49 | 353 | 0.0 | 0.9 | 0.00 | 0.66 | 0.03 | 95 | 1021.9 |
| 20260507022548 | 49 | 352 | 0.0 | 0.9 | 0.00 | 0.66 | 0.03 | 95 | 1022.0 |
| 20260507021538 | 49 | 78 | 0.0 | 0.9 | 0.00 | 0.66 | 0.03 | 96 | 1022.1 |
| 20260507020548 | 48 | 0.0 | 0.0 | 0.00 | 0.66 | 0.03 | 96 | 1022.1 | |
| 20260507015600 | 49 | 74 | 0.0 | 0.9 | 0.00 | 0.66 | 0.03 | 96 | 1022.1 |
| 20260507014609 | 49 | 353 | 0.0 | 0.9 | 0.00 | 0.66 | 0.03 | 96 | 1022.0 |
| 20260507013558 | 49 | 24 | 0.0 | 0.9 | 0.00 | 0.66 | 0.03 | 95 | 1021.9 |
| 20260507012549 | 49 | 0.0 | 0.0 | 0.00 | 0.66 | 0.03 | 95 | 1022.0 | |
| 20260507011542 | 49 | 349 | 0.0 | 0.0 | 0.00 | 0.66 | 0.03 | 95 | 1022.1 |
| 20260507010529 | 49 | 0.0 | 0.0 | 0.00 | 0.66 | 0.03 | 95 | 1022.2 | |
| 20260507005519 | 49 | 0.0 | 0.0 | 0.00 | 0.66 | 0.03 | 95 | 1022.2 | |
| 20260507004632 | 49 | 306 | 0.0 | 0.0 | 0.00 | 0.66 | 0.03 | 95 | 1022.1 |
| 20260507003620 | 49 | 0.0 | 0.0 | 0.00 | 0.66 | 0.03 | 95 | 1022.1 | |
| 20260507002549 | 49 | 13 | 0.0 | 0.9 | 0.00 | 0.66 | 0.03 | 95 | 1022.1 |
| 20260507001540 | 50 | 2 | 0.0 | 0.9 | 0.00 | 0.66 | 0.03 | 95 | 1022.0 |
| 20260507000530 | 50 | 24 | 0.0 | 0.0 | 0.00 | 0.66 | 0.03 | 94 | 1022.1 |
| 20260506235601 | 50 | 46 | 0.0 | 0.9 | 0.00 | 0.66 | 0.03 | 94 | 1022.2 |
| 20260506234610 | 50 | 66 | 0.0 | 1.7 | 0.00 | 0.66 | 0.03 | 94 | 1022.1 |
| 20260506233601 | 50 | 68 | 0.9 | 1.7 | 0.00 | 0.67 | 0.03 | 94 | 1022.1 |
| 20260506232552 | 50 | 343 | 0.9 | 0.9 | 0.00 | 0.70 | 0.03 | 95 | 1022.1 |
| 20260506231541 | 50 | 47 | 0.0 | 1.7 | 0.00 | 0.72 | 0.03 | 95 | 1022.3 |
| 20260506230531 | 50 | 357 | 0.0 | 0.9 | 0.00 | 0.73 | 0.03 | 95 | 1022.2 |
| 20260506225521 | 50 | 354 | 0.0 | 1.7 | 0.03 | 0.74 | 0.03 | 95 | 1022.2 |
| 20260506224612 | 50 | 0.0 | 0.0 | 0.03 | 0.79 | 0.03 | 95 | 1022.4 | |
| 20260506223601 | 50 | 72 | 0.0 | 0.9 | 0.03 | 0.82 | 0.03 | 95 | 1022.2 |
| 20260506222552 | 50 | 72 | 0.0 | 0.9 | 0.03 | 0.84 | 0.03 | 95 | 1022.2 |
| 20260506221542 | 50 | 8 | 0.9 | 1.7 | 0.03 | 0.84 | 0.03 | 94 | 1022.3 |
| 20260506220532 | 50 | 355 | 0.0 | 0.9 | 0.02 | 0.83 | 0.02 | 94 | 1022.4 |
| 20260506215522 | 50 | 346 | 0.0 | 0.9 | 0.00 | 0.79 | 0.79 | 94 | 1022.3 |
| 20260506214613 | 50 | 5 | 0.0 | 0.9 | 0.00 | 0.79 | 0.79 | 94 | 1022.1 |
| 20260506213622 | 50 | 31 | 0.0 | 0.0 | 0.00 | 0.79 | 0.79 | 94 | 1022.0 |
| 20260506212553 | 50 | 105 | 0.0 | 0.9 | 0.00 | 0.79 | 0.79 | 93 | 1022.2 |
| 20260506211543 | 51 | 353 | 0.9 | 0.9 | 0.00 | 0.79 | 0.79 | 94 | 1022.0 |
| 20260506210534 | 51 | 42 | 0.9 | 1.7 | 0.00 | 0.79 | 0.79 | 94 | 1022.0 |
| 20260506205524 | 51 | 10 | 0.0 | 1.7 | 0.03 | 0.79 | 0.79 | 94 | 1022.1 |
| 20260506204613 | 51 | 3 | 0.9 | 1.7 | 0.03 | 0.79 | 0.79 | 94 | 1022.0 |
| 20260506203603 | 51 | 93 | 0.0 | 0.9 | 0.03 | 0.79 | 0.79 | 93 | 1021.9 |
| 20260506202553 | 51 | 100 | 0.0 | 0.9 | 0.03 | 0.79 | 0.79 | 93 | 1021.9 |
| 20260506201603 | 51 | 306 | 0.0 | 0.0 | 0.03 | 0.79 | 0.79 | 93 | 1021.9 |
| 20260506200555 | 51 | 326 | 0.0 | 0.9 | 0.02 | 0.78 | 0.78 | 92 | 1021.7 |
| 20260506195523 | 52 | 10 | 0.0 | 1.7 | 0.03 | 0.74 | 0.74 | 91 | 1021.4 |
| 20260506194614 | 52 | 47 | 0.0 | 0.9 | 0.02 | 0.73 | 0.73 | 89 | 1021.2 |
| 20260506193605 | 53 | 351 | 1.7 | 5.2 | 0.02 | 0.73 | 0.73 | 85 | 1021.2 |
| 20260506192554 | 54 | 349 | 0.9 | 1.7 | 0.02 | 0.73 | 0.73 | 89 | 1021.1 |
| 20260506191544 | 54 | 302 | 0.0 | 0.0 | 0.01 | 0.72 | 0.72 | 93 | 1021.0 |
| 20260506190536 | 54 | 312 | 0.9 | 0.9 | 0.00 | 0.71 | 0.71 | 91 | 1020.5 |
| 20260506185525 | 55 | 348 | 0.0 | 0.9 | 0.00 | 0.71 | 0.71 | 91 | 1020.2 |
| 20260506184616 | 54 | 0.0 | 0.0 | 0.00 | 0.71 | 0.71 | 92 | 1020.1 | |
| 20260506183604 | 54 | 51 | 0.0 | 0.9 | 0.00 | 0.71 | 0.71 | 92 | 1019.7 |
| 20260506182556 | 55 | 346 | 0.9 | 2.6 | 0.00 | 0.71 | 0.71 | 92 | 1019.6 |
| 20260506181545 | 55 | 0.0 | 0.0 | 0.00 | 0.71 | 0.71 | 91 | 1019.8 | |
| 20260506180535 | 55 | 319 | 0.0 | 0.9 | 0.00 | 0.71 | 0.71 | 91 | 1019.4 |
| 20260506175526 | 55 | 1 | 0.0 | 0.9 | 0.00 | 0.71 | 0.71 | 90 | 1019.1 |
| 20260506174615 | 55 | 350 | 0.0 | 0.9 | 0.00 | 0.71 | 0.71 | 90 | 1019.1 |
| 20260506173605 | 55 | 16 | 0.0 | 0.0 | 0.00 | 0.71 | 0.71 | 90 | 1019.1 |
| 20260506172637 | 56 | 295 | 0.0 | 0.9 | 0.00 | 0.71 | 0.71 | 90 | 1018.9 |
| 20260506171545 | 56 | 0.0 | 0.0 | 0.00 | 0.72 | 0.71 | 87 | 1018.8 | |
| 20260506170535 | 56 | 284 | 0.9 | 0.9 | 0.00 | 0.72 | 0.71 | 87 | 1018.7 |
| 20260506165525 | 56 | 293 | 0.9 | 1.7 | 0.00 | 0.72 | 0.71 | 87 | 1018.5 |
| 20260506164617 | 57 | 299 | 0.9 | 1.7 | 0.00 | 0.73 | 0.71 | 88 | 1018.6 |
| 20260506163625 | 57 | 0.0 | 0.0 | 0.00 | 0.74 | 0.71 | 88 | 1018.5 | |
| 20260506162617 | 57 | 294 | 0.0 | 0.9 | 0.00 | 0.75 | 0.71 | 89 | 1018.5 |
| 20260506161606 | 57 | 307 | 1.7 | 1.7 | 0.00 | 0.75 | 0.71 | 87 | 1018.4 |
| 20260506160536 | 58 | 214 | 0.0 | 0.9 | 0.00 | 0.76 | 0.71 | 87 | 1018.4 |
| 20260506155547 | 59 | 214 | 0.0 | 0.9 | 0.00 | 0.76 | 0.71 | 85 | 1018.4 |
| 20260506154619 | 61 | 214 | 0.0 | 0.9 | 0.00 | 0.77 | 0.71 | 80 | 1018.4 |
| 20260506153626 | 62 | 213 | 0.0 | 0.9 | 0.00 | 0.78 | 0.71 | 78 | 1018.4 |
| 20260506152557 | 59 | 207 | 0.0 | 0.9 | 0.00 | 0.79 | 0.71 | 84 | 1018.6 |
| 20260506151550 | 61 | 253 | 0.0 | 0.0 | 0.00 | 0.79 | 0.71 | 79 | 1018.7 |
| 20260506150537 | 60 | 216 | 0.0 | 0.0 | 0.00 | 0.79 | 0.71 | 82 | 1018.8 |
| 20260506145527 | 61 | 217 | 0.9 | 0.9 | 0.00 | 0.79 | 0.71 | 76 | 1018.9 |
| 20260506144517 | 58 | 199 | 0.0 | 0.9 | 0.00 | 0.79 | 0.71 | 81 | 1019.0 |
| 20260506143607 | 58 | 199 | 0.0 | 0.9 | 0.00 | 0.79 | 0.71 | 81 | 1019.3 |
| 20260506142558 | 59 | 195 | 0.9 | 1.7 | 0.00 | 0.79 | 0.71 | 80 | 1019.3 |
| 20260506141548 | 59 | 188 | 0.0 | 0.9 | 0.00 | 0.79 | 0.71 | 77 | 1019.6 |
| 20260506140558 | 59 | 186 | 0.0 | 0.0 | 0.00 | 0.79 | 0.71 | 82 | 1019.7 |
| 20260506135528 | 59 | 152 | 0.0 | 0.9 | 0.02 | 0.79 | 0.71 | 82 | 1019.7 |
| 20260506134517 | 59 | 122 | 0.0 | 0.0 | 0.02 | 0.79 | 0.71 | 82 | 1019.8 |
| 20260506133608 | 59 | 210 | 0.9 | 1.7 | 0.02 | 0.79 | 0.71 | 83 | 1020.0 |
| 20260506132619 | 57 | 197 | 0.0 | 0.9 | 0.02 | 0.80 | 0.71 | 90 | 1020.1 |
| 20260506131549 | 55 | 0.0 | 0.0 | 0.02 | 0.80 | 0.71 | 91 | 1020.3 | |
| 20260506130538 | 55 | 0.0 | 0.0 | 0.01 | 0.79 | 0.70 | 92 | 1020.3 | |
| 20260506125550 | 55 | 0.0 | 0.0 | 0.07 | 0.77 | 0.67 | 90 | 1020.4 | |
| 20260506124520 | 55 | 194 | 0.0 | 0.0 | 0.04 | 0.74 | 0.64 | 89 | 1020.3 |
| 20260506123610 | 55 | 0.0 | 0.0 | 0.00 | 0.70 | 0.60 | 90 | 1020.3 | |
| 20260506122600 | 54 | 0.0 | 0.0 | 0.00 | 0.70 | 0.60 | 92 | 1020.4 | |
| 20260506121611 | 53 | 194 | 0.0 | 0.0 | 0.00 | 0.70 | 0.60 | 90 | 1020.6 |
| 20260506120539 | 54 | 174 | 0.9 | 1.7 | 0.00 | 0.70 | 0.60 | 93 | 1020.6 |
| 20260506115531 | 54 | 0.0 | 0.0 | 0.13 | 0.70 | 0.60 | 93 | 1020.6 | |
| 20260506114521 | 53 | 201 | 0.0 | 0.9 | 0.10 | 0.67 | 0.57 | 93 | 1020.6 |
| 20260506113653 | 54 | 192 | 0.9 | 1.7 | 0.08 | 0.65 | 0.55 | 92 | 1020.5 |
| 20260506112602 | 54 | 189 | 1.7 | 2.6 | 0.04 | 0.61 | 0.51 | 91 | 1020.5 |